Time;durP1;ratioP1;P1;durP2;ratioP2;P2;SDS_P1;SDS_P2;PMS_P1;PMS_P2;Temp;Humidity;BMP_temperature;BMP_pressure;BME280_temperature;BME280_humidity;BME280_pressure;Samples;Min_cycle;Max_cycle;Signal;HPM_P1;HPM_P2
2023/01/19 00:00:41;;;;;;;108.22;13.00;;;;;;;-148.24;100.00;61531.34;4990098;28;20046;-56
2023/01/19 00:03:14;;;;;;;117.30;13.15;;;;;;;-148.24;100.00;61531.34;4993987;28;20468;-55
2023/01/19 00:05:40;;;;;;;126.50;13.00;;;;;;;-148.24;100.00;61531.34;4990207;28;20158;-56
2023/01/19 00:08:13;;;;;;;95.38;11.52;;;;;;;-148.24;100.00;61531.34;4992908;28;20121;-53
2023/01/19 00:10:39;;;;;;;98.35;11.27;;;;;;;-148.24;100.00;61531.34;4991964;28;20038;-56
2023/01/19 00:13:05;;;;;;;94.03;11.52;;;;;;;-148.24;100.00;61531.34;4992135;28;20514;-54
2023/01/19 00:15:30;;;;;;;75.82;11.20;;;;;;;-148.24;100.00;61531.34;4992499;28;20030;-53
2023/01/19 00:17:56;;;;;;;103.72;11.73;;;;;;;-148.24;100.00;61531.34;4994983;28;20042;-52
2023/01/19 00:20:21;;;;;;;100.13;11.45;;;;;;;-148.24;100.00;61531.34;4996502;28;20121;-54
2023/01/19 00:22:49;;;;;;;84.47;11.05;;;;;;;-148.24;100.00;61531.34;4992631;28;20105;-53
2023/01/19 00:25:16;;;;;;;77.97;10.68;;;;;;;-148.24;100.00;61531.34;4994225;28;20512;-53
2023/01/19 00:27:41;;;;;;;87.00;11.00;;;;;;;-148.24;100.00;61531.34;4994292;28;20010;-55
2023/01/19 00:30:09;;;;;;;90.63;10.88;;;;;;;-148.24;100.00;61531.34;4982168;28;20169;-54
2023/01/19 00:32:34;;;;;;;107.15;12.10;;;;;;;-148.24;100.00;61531.34;4990435;28;20049;-53
2023/01/19 00:35:00;;;;;;;91.82;11.13;;;;;;;-148.24;100.00;61531.34;4990696;28;20026;-54
2023/01/19 00:37:25;;;;;;;96.35;12.48;;;;;;;-148.24;100.00;61531.34;4993350;28;20069;-53
2023/01/19 00:39:50;;;;;;;76.18;10.77;;;;;;;-148.24;100.00;61531.34;4995202;28;20268;-56
2023/01/19 00:43:02;;;;;;;69.95;9.93;;;;;;;-148.24;100.00;61531.34;4993312;28;20050;-55
2023/01/19 00:45:01;;;;;;;82.15;11.50;;;;;;;-148.24;100.00;61531.34;4984311;28;20045;-53
2023/01/19 00:47:27;;;;;;;87.07;11.98;;;;;;;-148.24;100.00;61531.34;4991650;28;20048;-54
2023/01/19 00:49:52;;;;;;;76.28;10.77;;;;;;;-148.24;100.00;61531.34;4992603;28;20037;-53
2023/01/19 00:52:18;;;;;;;76.55;10.90;;;;;;;-148.24;100.00;61531.34;4994162;28;20037;-55
2023/01/19 00:54:43;;;;;;;108.20;12.27;;;;;;;-148.24;100.00;61531.34;4993496;28;20033;-53
2023/01/19 00:57:09;;;;;;;70.75;10.32;;;;;;;-148.24;100.00;61531.34;4993801;28;20066;-53
2023/01/19 00:59:34;;;;;;;104.65;12.07;;;;;;;-148.24;100.00;61531.34;4993454;28;20061;-56
2023/01/19 01:01:59;;;;;;;68.93;10.00;;;;;;;-148.24;100.00;61531.34;4992963;28;20161;-55
2023/01/19 01:04:25;;;;;;;90.32;11.75;;;;;;;-148.24;100.00;61531.34;4995064;28;20034;-55
2023/01/19 01:06:50;;;;;;;100.32;11.70;;;;;;;-148.24;100.00;61531.34;4992149;28;20047;-53
2023/01/19 01:09:15;;;;;;;80.57;11.48;;;;;;;-148.24;100.00;61531.34;4992955;28;20631;-53
2023/01/19 01:11:41;;;;;;;89.35;12.32;;;;;;;-148.24;100.00;61531.34;4989940;28;20050;-53
2023/01/19 01:14:08;;;;;;;93.63;14.43;;;;;;;-148.24;100.00;61531.34;4993015;28;20113;-54
2023/01/19 01:16:33;;;;;;;91.32;13.50;;;;;;;-148.24;100.00;61531.34;4991441;28;20774;-54
2023/01/19 01:18:59;;;;;;;99.38;12.75;;;;;;;-148.24;100.00;61531.34;4993266;28;20034;-53
2023/01/19 01:21:24;;;;;;;80.13;11.25;;;;;;;-148.24;100.00;61531.34;4992593;28;20709;-54
2023/01/19 01:23:50;;;;;;;76.93;10.18;;;;;;;-148.24;100.00;61531.34;4993667;28;20620;-53
2023/01/19 01:26:15;;;;;;;73.68;10.07;;;;;;;-148.24;100.00;61531.34;4993542;28;20041;-54
2023/01/19 01:28:40;;;;;;;95.50;11.20;;;;;;;-148.24;100.00;61531.34;4993527;28;20033;-53
2023/01/19 01:31:06;;;;;;;102.93;11.27;;;;;;;-148.24;100.00;61531.34;4989619;28;20038;-55
2023/01/19 01:33:31;;;;;;;80.50;9.95;;;;;;;-148.24;100.00;61531.34;4993437;28;20097;-53
2023/01/19 01:35:56;;;;;;;70.93;10.10;;;;;;;-148.24;100.00;61531.34;4993414;28;20137;-53
2023/01/19 01:38:22;;;;;;;86.43;10.38;;;;;;;-148.24;100.00;61531.34;4992887;28;20029;-54
2023/01/19 01:40:47;;;;;;;76.30;9.68;;;;;;;-148.24;100.00;61531.34;4992336;28;20042;-52
2023/01/19 01:43:16;;;;;;;69.20;9.02;;;;;;;-148.24;100.00;61531.34;4993077;28;20033;-53
2023/01/19 01:45:42;;;;;;;70.47;9.75;;;;;;;-148.24;100.00;61531.34;4991698;28;20034;-55
2023/01/19 01:48:29;;;;;;;74.93;9.80;;;;;;;-148.24;100.00;61531.34;4991890;28;20528;-55
2023/01/19 01:51:40;;;;;;;91.63;10.63;;;;;;;-148.24;100.00;61531.34;4997206;28;20105;-53
2023/01/19 01:53:51;;;;;;;77.55;10.20;;;;;;;-148.24;100.00;61531.34;4982803;28;20050;-53
2023/01/19 01:56:21;;;;;;;79.18;10.15;;;;;;;-148.24;100.00;61531.34;4991721;28;20571;-53
2023/01/19 01:58:47;;;;;;;76.47;9.93;;;;;;;-148.24;100.00;61531.34;4993982;28;20041;-53
2023/01/19 02:32:56;;;;;;;306.15;25.88;;;;;;;-148.24;100.00;61531.34;6031286;23;20064;-52
2023/01/19 02:51:02;;;;;;;294.60;25.40;;;;;;;-148.24;100.00;61531.34;6041469;22;20110;-56
2023/01/19 03:01:46;;;;;;;195.93;18.23;;;;;;;-148.24;100.00;61531.34;5482208;22;20062;-55
2023/01/19 03:04:55;;;;;;;63.85;10.13;;;;;;;-148.24;100.00;61531.34;4973622;28;20076;-55
2023/01/19 03:07:35;;;;;;;72.65;10.23;;;;;;;-148.24;100.00;61531.34;4930510;28;20494;-55
2023/01/19 03:10:14;;;;;;;76.93;9.95;;;;;;;-148.24;100.00;61531.34;4977167;28;20057;-53
2023/01/19 03:12:49;;;;;;;72.43;10.88;;;;;;;-148.24;100.00;61531.34;4977862;28;20099;-53
2023/01/19 03:15:26;;;;;;;68.45;9.60;;;;;;;-148.24;100.00;61531.34;4977908;28;20054;-53
2023/01/19 03:17:52;;;;;;;87.65;10.70;;;;;;;-148.24;100.00;61531.34;4982516;28;20035;-52
2023/01/19 03:20:23;;;;;;;82.13;10.57;;;;;;;-148.24;100.00;61531.34;4962039;28;20030;-52
2023/01/19 03:22:54;;;;;;;97.10;11.05;;;;;;;-148.24;100.00;61531.34;4981127;28;20145;-55
2023/01/19 03:25:22;;;;;;;79.37;10.67;;;;;;;-148.24;100.00;61531.34;4975754;28;20030;-53
2023/01/19 03:27:51;;;;;;;78.20;11.75;;;;;;;-148.24;100.00;61531.34;4978818;28;20025;-52
2023/01/19 03:30:23;;;;;;;78.63;12.25;;;;;;;-148.24;100.00;61531.34;4977984;28;20898;-52
2023/01/19 03:32:55;;;;;;;81.38;11.77;;;;;;;-148.24;100.00;61531.34;4974792;28;20029;-55
2023/01/19 03:35:24;;;;;;;71.80;11.40;;;;;;;-148.24;100.00;61531.34;4976862;28;20029;-53
2023/01/19 03:37:53;;;;;;;70.75;10.85;;;;;;;-148.24;100.00;61531.34;4982063;28;20082;-53
2023/01/19 03:40:20;;;;;;;61.28;8.38;;;;;;;-148.24;100.00;61531.34;4973042;28;20798;-51
2023/01/19 03:42:48;;;;;;;74.72;10.40;;;;;;;-148.24;100.00;61531.34;4978586;28;20438;-53
2023/01/19 03:45:14;;;;;;;83.78;11.48;;;;;;;-148.24;100.00;61531.34;4972520;28;20031;-55
2023/01/19 03:47:40;;;;;;;71.38;10.18;;;;;;;-148.24;100.00;61531.34;4973924;28;20026;-53
2023/01/19 03:50:13;;;;;;;95.45;11.98;;;;;;;-148.24;100.00;61531.34;4975686;28;20870;-52
2023/01/19 03:52:38;;;;;;;60.13;10.02;;;;;;;-148.24;100.00;61531.34;4978285;28;20037;-52
2023/01/19 03:55:04;;;;;;;60.65;10.27;;;;;;;-148.24;100.00;61531.34;4978203;28;20030;-54
2023/01/19 03:57:31;;;;;;;75.05;10.93;;;;;;;-148.24;100.00;61531.34;4977641;28;20038;-53
2023/01/19 03:59:56;;;;;;;78.22;9.98;;;;;;;-148.24;100.00;61531.34;4977486;28;20033;-54
2023/01/19 04:02:22;;;;;;;85.15;11.15;;;;;;;-148.24;100.00;61531.34;4979702;28;20050;-54
2023/01/19 04:04:48;;;;;;;68.63;10.05;;;;;;;-148.24;100.00;61531.34;4978512;28;20041;-53
2023/01/19 04:07:13;;;;;;;53.70;9.38;;;;;;;-148.24;100.00;61531.34;4976456;28;20035;-53
2023/01/19 04:09:39;;;;;;;75.80;10.98;;;;;;;-148.24;100.00;61531.34;4973492;28;20066;-55
2023/01/19 04:12:04;;;;;;;61.72;9.93;;;;;;;-148.24;100.00;61531.34;4976976;28;20150;-55
2023/01/19 04:14:30;;;;;;;74.72;10.20;;;;;;;-148.24;100.00;61531.34;4973330;28;20097;-56
2023/01/19 04:16:55;;;;;;;60.90;7.68;;;;;;;-148.24;100.00;61531.34;4976470;28;20503;-55
2023/01/19 04:19:20;;;;;;;65.75;9.60;;;;;;;-148.24;100.00;61531.34;4978323;28;20257;-53
2023/01/19 04:21:49;;;;;;;68.63;10.60;;;;;;;-148.24;100.00;61531.34;4971629;28;20066;-53
2023/01/19 04:24:15;;;;;;;62.75;10.43;;;;;;;-148.24;100.00;61531.34;4977682;28;20025;-53
2023/01/19 04:26:41;;;;;;;85.32;11.60;;;;;;;-148.24;100.00;61531.34;4975805;28;20544;-52
2023/01/19 04:29:06;;;;;;;61.88;9.82;;;;;;;-148.24;100.00;61531.34;4976830;28;20058;-53
2023/01/19 04:31:34;;;;;;;78.55;10.95;;;;;;;-148.24;100.00;61531.34;4976168;28;20398;-53
2023/01/19 04:34:00;;;;;;;60.05;9.20;;;;;;;-148.24;100.00;61531.34;4976814;28;20037;-55
2023/01/19 04:36:26;;;;;;;67.47;9.90;;;;;;;-148.24;100.00;61531.34;4978891;28;20038;-54
2023/01/19 04:38:51;;;;;;;84.28;10.77;;;;;;;-148.24;100.00;61531.34;4975839;28;20046;-53
2023/01/19 04:41:17;;;;;;;71.28;10.73;;;;;;;-148.24;100.00;61531.34;4978460;28;20047;-55
2023/01/19 04:43:42;;;;;;;87.45;12.13;;;;;;;-148.24;100.00;61531.34;4975350;28;20030;-55
2023/01/19 04:46:08;;;;;;;69.43;9.90;;;;;;;-148.24;100.00;61531.34;4978071;28;20045;-53
2023/01/19 04:48:33;;;;;;;71.88;10.63;;;;;;;-148.24;100.00;61531.34;4984265;28;20025;-55
2023/01/19 04:50:58;;;;;;;89.13;11.25;;;;;;;-148.24;100.00;61531.34;4978215;28;20062;-55
2023/01/19 04:53:24;;;;;;;79.00;9.88;;;;;;;-148.24;100.00;61531.34;4984798;28;20029;-54
2023/01/19 04:55:56;;;;;;;84.80;10.48;;;;;;;-148.24;100.00;61531.34;4976444;28;20069;-54
2023/01/19 04:58:21;;;;;;;60.42;9.60;;;;;;;-148.24;100.00;61531.34;4982220;28;20026;-53
2023/01/19 05:00:47;;;;;;;70.38;10.00;;;;;;;-148.24;100.00;61531.34;4981288;28;20052;-53
2023/01/19 05:03:12;;;;;;;73.60;9.90;;;;;;;-148.24;100.00;61531.34;4980714;28;20522;-52
2023/01/19 05:05:38;;;;;;;62.88;8.57;;;;;;;-148.24;100.00;61531.34;4980831;28;20677;-52
2023/01/19 05:08:03;;;;;;;90.95;11.40;;;;;;;-148.24;100.00;61531.34;4980727;28;20026;-53
2023/01/19 05:10:28;;;;;;;74.30;10.07;;;;;;;-148.24;100.00;61531.34;4977447;28;20034;-55
2023/01/19 05:12:56;;;;;;;72.68;10.27;;;;;;;-148.24;100.00;61531.34;4977014;28;20129;-53
2023/01/19 05:15:22;;;;;;;71.88;11.10;;;;;;;-148.24;100.00;61531.34;4978868;28;20058;-54
2023/01/19 05:17:47;;;;;;;70.03;10.13;;;;;;;-148.24;100.00;61531.34;4976701;28;20026;-54
2023/01/19 05:20:13;;;;;;;86.10;10.48;;;;;;;-148.24;100.00;61531.34;4979668;28;20022;-54
2023/01/19 05:22:38;;;;;;;61.83;9.50;;;;;;;-148.24;100.00;61531.34;4972964;28;20034;-53
2023/01/19 05:25:07;;;;;;;59.53;8.70;;;;;;;-148.24;100.00;61531.34;4979218;28;20021;-53
2023/01/19 05:27:33;;;;;;;82.32;11.35;;;;;;;-148.24;100.00;61531.34;4979872;28;20077;-53
2023/01/19 05:29:58;;;;;;;90.78;10.98;;;;;;;-148.24;100.00;61531.34;4978660;28;20038;-53
2023/01/19 05:32:23;;;;;;;81.38;11.30;;;;;;;-148.24;100.00;61531.34;4976814;28;20121;-55
2023/01/19 05:34:49;;;;;;;75.70;10.18;;;;;;;-148.24;100.00;61531.34;4981811;28;20046;-55
2023/01/19 05:37:14;;;;;;;76.25;11.43;;;;;;;-148.24;100.00;61531.34;4979552;28;20351;-54
2023/01/19 05:39:39;;;;;;;95.57;13.35;;;;;;;-148.24;100.00;61531.34;4976608;28;20030;-54
2023/01/19 05:42:05;;;;;;;65.40;9.88;;;;;;;-148.24;100.00;61531.34;4977493;28;20047;-54
2023/01/19 05:44:30;;;;;;;81.00;9.35;;;;;;;-148.24;100.00;61531.34;4979331;28;20023;-54
2023/01/19 05:46:56;;;;;;;80.82;10.15;;;;;;;-148.24;100.00;61531.34;4975960;28;20046;-52
2023/01/19 05:49:21;;;;;;;60.25;7.13;;;;;;;-148.24;100.00;61531.34;4980431;28;20049;-53
2023/01/19 05:51:47;;;;;;;61.20;8.57;;;;;;;-148.24;100.00;61531.34;4967235;28;20041;-53
2023/01/19 05:54:14;;;;;;;58.63;7.68;;;;;;;-148.24;100.00;61531.34;4986463;28;20038;-53
2023/01/19 05:56:40;;;;;;;79.00;11.23;;;;;;;-148.24;100.00;61531.34;4980298;28;20038;-53
2023/01/19 05:59:05;;;;;;;58.92;9.35;;;;;;;-148.24;100.00;61531.34;4977732;28;20030;-53
2023/01/19 06:01:32;;;;;;;65.45;10.70;;;;;;;-148.24;100.00;61531.34;4978601;28;20058;-52
2023/01/19 06:03:57;;;;;;;69.00;9.88;;;;;;;-148.24;100.00;61531.34;4981643;28;20086;-53
2023/01/19 06:06:22;;;;;;;75.13;10.82;;;;;;;-148.24;100.00;61531.34;4979113;28;20038;-56
2023/01/19 06:08:48;;;;;;;72.82;8.20;;;;;;;-148.24;100.00;61531.34;4978135;28;20069;-54
2023/01/19 06:11:13;;;;;;;67.70;6.90;;;;;;;-148.24;100.00;61531.34;4975308;28;20519;-53
2023/01/19 06:13:39;;;;;;;71.57;10.77;;;;;;;-148.24;100.00;61531.34;4979475;28;20076;-53
2023/01/19 06:16:05;;;;;;;70.32;9.75;;;;;;;-148.24;100.00;61531.34;4975841;28;20034;-55
2023/01/19 06:18:31;;;;;;;66.10;9.27;;;;;;;-148.24;100.00;61531.34;4977710;28;20034;-55
2023/01/19 06:20:59;;;;;;;81.63;10.55;;;;;;;-148.24;100.00;61531.34;4977940;28;20443;-54
2023/01/19 06:23:26;;;;;;;66.18;10.70;;;;;;;-148.24;100.00;61531.34;4977440;28;20057;-53
2023/01/19 06:25:51;;;;;;;101.05;11.60;;;;;;;-148.24;100.00;61531.34;4980735;28;20040;-54
2023/01/19 06:28:16;;;;;;;73.95;10.30;;;;;;;-148.24;100.00;61531.34;4981163;28;20034;-53
2023/01/19 06:30:42;;;;;;;58.40;9.35;;;;;;;-148.24;100.00;61531.34;4979257;28;20121;-56
2023/01/19 06:33:07;;;;;;;79.97;10.90;;;;;;;-148.24;100.00;61531.34;4978599;28;20052;-55
2023/01/19 06:35:34;;;;;;;74.78;11.60;;;;;;;-148.24;100.00;61531.34;4978300;28;20180;-53
2023/01/19 06:38:00;;;;;;;74.57;11.50;;;;;;;-148.24;100.00;61531.34;4976080;28;20621;-55
2023/01/19 06:40:25;;;;;;;57.42;10.38;;;;;;;-148.24;100.00;61531.34;4976490;28;20468;-55
2023/01/19 06:42:51;;;;;;;79.55;11.30;;;;;;;-148.24;100.00;61531.34;4975073;28;20037;-54
2023/01/19 06:45:16;;;;;;;82.45;11.25;;;;;;;-148.24;100.00;61531.34;4977951;28;20062;-55
2023/01/19 06:47:41;;;;;;;70.03;10.27;;;;;;;-148.24;100.00;61531.34;4977751;28;20044;-55
2023/01/19 06:50:07;;;;;;;104.45;13.43;;;;;;;-148.24;100.00;61531.34;4978034;28;20285;-53
2023/01/19 06:52:33;;;;;;;74.93;12.07;;;;;;;-148.24;100.00;61531.34;4977902;28;20033;-57
2023/01/19 06:54:58;;;;;;;67.70;11.20;;;;;;;-148.24;100.00;61531.34;4980137;28;20041;-55
2023/01/19 06:57:24;;;;;;;85.70;11.93;;;;;;;-148.24;100.00;61531.34;4976088;28;20140;-55
2023/01/19 06:59:50;;;;;;;76.97;11.65;;;;;;;-148.24;100.00;61531.34;4977114;28;20129;-55
2023/01/19 07:02:19;;;;;;;79.35;11.50;;;;;;;-148.24;100.00;61531.34;4962542;28;20046;-57
2023/01/19 07:04:44;;;;;;;64.47;8.98;;;;;;;-148.24;100.00;61531.34;4976416;28;20031;-56
2023/01/19 07:07:09;;;;;;;65.07;9.25;;;;;;;-148.24;100.00;61531.34;4978346;28;20042;-55
2023/01/19 07:09:35;;;;;;;72.30;10.90;;;;;;;-148.24;100.00;61531.34;4981979;28;20113;-55
2023/01/19 07:12:00;;;;;;;68.35;9.02;;;;;;;-148.24;100.00;61531.34;4974417;28;20035;-60
2023/01/19 07:14:32;;;;;;;88.80;11.35;;;;;;;-148.24;100.00;61531.34;4968539;28;20113;-54
2023/01/19 07:16:57;;;;;;;65.03;10.27;;;;;;;-148.24;100.00;61531.34;4947955;28;20038;-55
2023/01/19 07:19:23;;;;;;;72.63;11.10;;;;;;;-148.24;100.00;61531.34;4978083;28;20273;-54
2023/01/19 07:21:48;;;;;;;74.57;8.77;;;;;;;-148.24;100.00;61531.34;4978485;28;20038;-54
2023/01/19 07:24:13;;;;;;;74.32;10.02;;;;;;;-148.24;100.00;61531.34;4977613;28;20031;-53
2023/01/19 07:26:39;;;;;;;88.82;11.85;;;;;;;-148.24;100.00;61531.34;4977095;28;20043;-53
2023/01/19 07:29:04;;;;;;;72.47;11.55;;;;;;;-148.24;100.00;61531.34;4978466;28;20041;-55
2023/01/19 07:31:30;;;;;;;57.40;8.70;;;;;;;-148.24;100.00;61531.34;4979989;28;20058;-53
2023/01/19 07:33:55;;;;;;;80.85;12.38;;;;;;;-148.24;100.00;61531.34;4974195;28;20117;-54
2023/01/19 07:36:20;;;;;;;72.63;9.05;;;;;;;-148.24;100.00;61531.34;4977035;28;20053;-56
2023/01/19 07:38:46;;;;;;;77.47;11.07;;;;;;;-148.24;100.00;61531.34;4979325;28;20034;-54
2023/01/19 07:41:11;;;;;;;73.75;10.63;;;;;;;-148.24;100.00;61531.34;4976246;28;21039;-54
2023/01/19 07:43:37;;;;;;;65.05;8.45;;;;;;;-148.24;100.00;61531.34;4978186;28;20094;-54
2023/01/19 07:46:04;;;;;;;73.50;10.90;;;;;;;-148.24;100.00;61531.34;4977345;28;20026;-56
2023/01/19 07:48:29;;;;;;;71.72;11.57;;;;;;;-148.24;100.00;61531.34;4979314;28;20037;-54
2023/01/19 07:51:00;;;;;;;70.45;7.65;;;;;;;-148.24;100.00;61531.34;4977008;28;20038;-55
2023/01/19 07:53:25;;;;;;;79.88;12.00;;;;;;;-148.24;100.00;61531.34;4974816;28;20027;-54
2023/01/19 07:55:55;;;;;;;74.43;9.23;;;;;;;-148.24;100.00;61531.34;4975646;28;20117;-55
2023/01/19 07:58:22;;;;;;;53.58;7.53;;;;;;;-148.24;100.00;61531.34;4976835;28;20068;-54
2023/01/19 08:00:47;;;;;;;59.30;8.45;;;;;;;-148.24;100.00;61531.34;4978238;28;20041;-55
2023/01/19 08:03:13;;;;;;;66.70;9.13;;;;;;;-148.24;100.00;61531.34;4975385;28;20037;-53
2023/01/19 08:05:38;;;;;;;61.50;6.32;;;;;;;-148.24;100.00;61531.34;4974242;28;20043;-54
2023/01/19 08:08:04;;;;;;;76.68;9.75;;;;;;;-148.24;100.00;61531.34;4975782;28;20542;-54
2023/01/19 08:10:30;;;;;;;61.25;9.73;;;;;;;-148.24;100.00;61531.34;4978922;28;20133;-54
2023/01/19 08:12:57;;;;;;;53.38;6.88;;;;;;;-148.24;100.00;61531.34;4977919;28;20035;-54
2023/01/19 08:15:23;;;;;;;76.20;10.65;;;;;;;-148.24;100.00;61531.34;4974229;28;20030;-55
2023/01/19 08:17:55;;;;;;;66.20;11.93;;;;;;;-148.24;100.00;61531.34;4976505;28;20026;-55
2023/01/19 08:20:22;;;;;;;;;;;;;;;-148.24;100.00;61531.34;4975060;28;20609;-56
2023/01/19 08:22:47;;;;;;;62.28;7.25;;;;;;;-148.24;100.00;61531.34;4980828;28;19917;-56
2023/01/19 08:25:13;;;;;;;82.30;9.27;;;;;;;-148.24;100.00;61531.34;4983132;28;20041;-54
2023/01/19 08:27:38;;;;;;;74.05;11.80;;;;;;;-148.24;100.00;61531.34;4979277;28;20030;-54
2023/01/19 08:30:04;;;;;;;87.40;14.23;;;;;;;-148.24;100.00;61531.34;4976961;28;20026;-57
2023/01/19 08:32:29;;;;;;;67.00;8.00;;;;;;;-148.24;100.00;61531.34;4957552;28;20038;-54
2023/01/19 08:34:55;;;;;;;61.17;10.25;;;;;;;-148.24;100.00;61531.34;4980259;28;20150;-53
2023/01/19 08:37:20;;;;;;;87.78;13.10;;;;;;;-148.24;100.00;61531.34;4979538;28;20045;-55
2023/01/19 08:39:46;;;;;;;56.03;5.57;;;;;;;-148.24;100.00;61531.34;4981589;28;20029;-54
2023/01/19 08:42:11;;;;;;;70.65;12.48;;;;;;;-148.24;100.00;61531.34;4979051;28;20043;-53
2023/01/19 08:44:36;;;;;;;77.93;11.25;;;;;;;-148.24;100.00;61531.34;4978491;28;20034;-54
2023/01/19 08:47:02;;;;;;;45.55;5.13;;;;;;;-148.24;100.00;61531.34;4973433;28;20050;-55
2023/01/19 08:49:27;;;;;;;80.82;11.18;;;;;;;-148.24;100.00;61531.34;4980385;28;20987;-54
2023/01/19 08:51:52;;;;;;;65.88;7.65;;;;;;;-148.24;100.00;61531.34;4977363;28;20054;-53
2023/01/19 08:54:20;;;;;;;60.70;10.63;;;;;;;-148.24;100.00;61531.34;4977551;28;20525;-56
2023/01/19 08:56:46;;;;;;;73.75;7.55;;;;;;;-148.24;100.00;61531.34;4980649;28;20101;-54
2023/01/19 08:59:11;;;;;;;58.97;7.05;;;;;;;-148.24;100.00;61531.34;4979968;28;20151;-54
2023/01/19 09:01:36;;;;;;;64.10;9.30;;;;;;;-148.24;100.00;61531.34;4978293;28;20096;-55
2023/01/19 09:04:02;;;;;;;63.83;10.82;;;;;;;-148.24;100.00;61531.34;4977486;28;20029;-54
2023/01/19 09:06:27;;;;;;;61.55;8.32;;;;;;;-148.24;100.00;61531.34;4979356;28;20915;-54
2023/01/19 09:08:52;;;;;;;94.75;12.75;;;;;;;-148.24;100.00;61531.34;4980062;28;20019;-55
2023/01/19 09:11:18;;;;;;;56.85;6.88;;;;;;;-148.24;100.00;61531.34;4978658;28;20098;-54
2023/01/19 09:13:44;;;;;;;74.95;11.57;;;;;;;-148.24;100.00;61531.34;4979106;28;20038;-54
2023/01/19 09:16:11;;;;;;;65.80;12.18;;;;;;;-148.24;100.00;61531.34;4977317;28;20558;-53
2023/01/19 09:18:37;;;;;;;52.78;8.10;;;;;;;-148.24;100.00;61531.34;4980469;28;20033;-54
2023/01/19 09:21:03;;;;;;;73.70;8.85;;;;;;;-148.24;100.00;61531.34;4979195;28;20073;-57
2023/01/19 09:23:29;;;;;;;66.30;11.38;;;;;;;-148.24;100.00;61531.34;4981548;28;20038;-55
2023/01/19 09:26:00;;;;;;;81.97;12.60;;;;;;;-148.24;100.00;61531.34;4977091;28;20117;-55
2023/01/19 09:28:25;;;;;;;76.90;11.00;;;;;;;-148.24;100.00;61531.34;4980541;28;20029;-53
2023/01/19 09:30:51;;;;;;;60.67;7.63;;;;;;;-148.24;100.00;61531.34;4978113;28;20053;-54
2023/01/19 09:33:18;;;;;;;78.43;12.25;;;;;;;-148.24;100.00;61531.34;4974780;28;20034;-56
2023/01/19 09:35:45;;;;;;;67.65;8.63;;;;;;;-148.24;100.00;61531.34;4980896;28;20038;-55
2023/01/19 09:38:11;;;;;;;82.93;10.93;;;;;;;-148.24;100.00;61531.34;4980092;28;20034;-54
2023/01/19 09:40:42;;;;;;;76.85;13.77;;;;;;;-148.24;100.00;61531.34;4976428;28;20039;-55
2023/01/19 09:43:12;;;;;;;59.63;9.00;;;;;;;-148.24;100.00;61531.34;4981019;28;20072;-57
2023/01/19 09:45:44;;;;;;;75.57;14.23;;;;;;;-148.24;100.00;61531.34;4979233;28;20049;-55
2023/01/19 09:48:27;;;;;;;65.80;14.70;;;;;;;-148.24;100.00;61531.34;4977252;28;20032;-54
2023/01/19 09:50:54;;;;;;;;;;;;;;;-148.24;100.00;61531.34;4978591;28;20504;-56
2023/01/19 09:53:28;;;;;;;64.85;7.22;;;;;;;-148.24;100.00;61531.34;4981422;28;20636;-54
2023/01/19 09:55:54;;;;;;;63.42;10.85;;;;;;;-148.24;100.00;61531.34;4980173;28;20410;-54
2023/01/19 09:58:20;;;;;;;75.70;11.88;;;;;;;-148.24;100.00;61531.34;4983318;28;20503;-54
2023/01/19 10:00:53;;;;;;;71.65;11.55;;;;;;;-148.24;100.00;61531.34;4978348;28;20121;-53
2023/01/19 10:03:19;;;;;;;63.30;12.35;;;;;;;-148.24;100.00;61531.34;4983163;28;20033;-55
2023/01/19 10:05:50;;;;;;;62.33;9.95;;;;;;;-148.24;100.00;61531.34;4978799;28;20207;-55
2023/01/19 10:09:04;;;;;;;50.17;7.35;;;;;;;-148.24;100.00;61531.34;4979633;28;20038;-57
2023/01/19 10:11:32;;;;;;;87.30;15.00;;;;;;;-148.24;100.00;61531.34;4960575;28;20062;-54
2023/01/19 10:13:58;;;;;;;58.42;10.57;;;;;;;-148.24;100.00;61531.34;4978929;28;20027;-55
2023/01/19 10:16:32;;;;;;;68.45;14.32;;;;;;;-148.24;100.00;61531.34;4977494;28;20049;-55
2023/01/19 10:19:25;;;;;;;46.65;4.93;;;;;;;-148.24;100.00;61531.34;4975920;28;20034;-54
2023/01/19 10:21:56;;;;;;;66.68;9.10;;;;;;;-148.24;100.00;61531.34;4978152;28;20149;-57
2023/01/19 10:24:28;;;;;;;58.80;11.63;;;;;;;-148.24;100.00;61531.34;4975791;28;20030;-56
2023/01/19 10:26:55;;;;;;;90.15;15.45;;;;;;;-148.24;100.00;61531.34;4976399;28;20045;-54
2023/01/19 10:29:35;;;;;;;55.75;7.25;;;;;;;-148.24;100.00;61531.34;4961468;28;20518;-55
2023/01/19 10:32:03;;;;;;;69.22;13.07;;;;;;;-148.24;100.00;61531.34;4979939;28;20049;-54
2023/01/19 10:34:28;;;;;;;59.75;7.90;;;;;;;-148.24;100.00;61531.34;4980232;28;20084;-55
2023/01/19 10:37:03;;;;;;;72.47;12.27;;;;;;;-148.24;100.00;61531.34;4979937;28;20121;-54
2023/01/19 10:39:28;;;;;;;65.35;11.10;;;;;;;-148.24;100.00;61531.34;4979426;28;20038;-56
2023/01/19 10:41:59;;;;;;;66.53;9.38;;;;;;;-148.24;100.00;61531.34;4979008;28;20144;-56
2023/01/19 10:44:33;;;;;;;58.70;10.77;;;;;;;-148.24;100.00;61531.34;4977822;28;20030;-57
2023/01/19 10:47:01;;;;;;;68.57;10.82;;;;;;;-148.24;100.00;61531.34;4976871;28;20073;-55
2023/01/19 10:49:36;;;;;;;68.65;11.40;;;;;;;-148.24;100.00;61531.34;4980582;28;20113;-55
2023/01/19 10:52:07;;;;;;;69.38;12.20;;;;;;;-148.24;100.00;61531.34;4977703;28;20412;-55
2023/01/19 10:54:35;;;;;;;59.85;9.02;;;;;;;-148.24;100.00;61531.34;4983090;28;20716;-56
2023/01/19 10:57:07;;;;;;;64.20;8.43;;;;;;;-148.24;100.00;61531.34;4979965;28;20089;-53
2023/01/19 10:59:55;;;;;;;64.25;7.78;;;;;;;-148.24;100.00;61531.34;4976960;28;20029;-56
2023/01/19 11:02:25;;;;;;;62.63;6.93;;;;;;;-148.24;100.00;61531.34;4977601;28;20043;-57
2023/01/19 11:04:52;;;;;;;57.25;8.90;;;;;;;-148.24;100.00;61531.34;4977777;28;20441;-54
2023/01/19 11:07:17;;;;;;;79.07;10.48;;;;;;;-148.24;100.00;61531.34;4977161;28;20052;-54
2023/01/19 11:09:42;;;;;;;65.93;9.10;;;;;;;-148.24;100.00;61531.34;4978685;28;20023;-55
2023/01/19 11:12:16;;;;;;;68.90;10.93;;;;;;;-148.24;100.00;61531.34;4974042;28;20035;-54
2023/01/19 11:14:41;;;;;;;60.58;7.32;;;;;;;-148.24;100.00;61531.34;4979710;28;20030;-56
2023/01/19 11:17:24;;;;;;;54.17;8.38;;;;;;;-148.24;100.00;61531.34;4976743;28;20039;-55
2023/01/19 11:19:57;;;;;;;59.03;10.05;;;;;;;-148.24;100.00;61531.34;4980774;28;20032;-55
2023/01/19 11:22:31;;;;;;;83.32;10.32;;;;;;;-148.24;100.00;61531.34;4974750;28;20449;-58
2023/01/19 11:24:59;;;;;;;60.15;6.30;;;;;;;-148.24;100.00;61531.34;4963570;28;20036;-56
2023/01/19 11:27:26;;;;;;;73.32;7.30;;;;;;;-148.24;100.00;61531.34;4978271;28;20037;-56
2023/01/19 11:30:20;;;;;;;57.35;6.90;;;;;;;-148.24;100.00;61531.34;4979005;28;20096;-56
2023/01/19 11:32:46;;;;;;;77.68;10.75;;;;;;;-148.24;100.00;61531.34;4961117;28;20118;-57
2023/01/19 11:35:32;;;;;;;60.83;10.05;;;;;;;-148.24;100.00;61531.34;4976939;28;20031;-54
2023/01/19 11:38:17;;;;;;;66.30;6.40;;;;;;;-148.24;100.00;61531.34;4974401;28;20042;-54
2023/01/19 11:40:51;;;;;;;63.45;9.82;;;;;;;-148.24;100.00;61531.34;4980221;28;20062;-56
2023/01/19 11:43:19;;;;;;;67.90;9.93;;;;;;;-148.24;100.00;61531.34;4977325;28;20054;-58
2023/01/19 11:45:44;;;;;;;76.63;10.63;;;;;;;-148.24;100.00;61531.34;4973391;28;20427;-55
2023/01/19 11:48:21;;;;;;;57.65;9.95;;;;;;;-148.24;100.00;61531.34;4977484;28;20923;-57
2023/01/19 11:50:48;;;;;;;80.22;10.93;;;;;;;-148.24;100.00;61531.34;4975342;28;21034;-55
2023/01/19 11:53:24;;;;;;;62.15;9.20;;;;;;;-148.24;100.00;61531.34;4982047;28;20026;-57
2023/01/19 11:55:57;;;;;;;86.82;10.35;;;;;;;-148.24;100.00;61531.34;4975596;28;20030;-55